Waterman, Pennsylvania
Current Conditions -  °F | °C
As of 3:15 AM on Tuesday 21 Oct 2014 (Local Time) from KIDI Reporting Station
Haze Haze  
Wind Chill: 10°   Ceiling: 1600
Heat Index: 10°   Visibility: 3mi
Dew Point:   Wind: 3mph
Humidity: 94%   Direction: 260°W
Pressure: 29.88"   Gusts: NA
Location:  40.5413°N, 79.1838°W
Report Text: KIDI 210715Z AUTO 26003KT 3SM BR OVC016 10/09 A2988 RMK A01
Loading
Personal Weather Stations






























Interactive Weather Map
Tropical Storm Tracking
New forecast layout! Learn more

10-Day Weather Forecast

Advertisements
Track Severe Weather on mobile